Time;durP1;ratioP1;P1;durP2;ratioP2;P2;SDS_P1;SDS_P2;PMS_P1;PMS_P2;Temp;Humidity;BMP_temperature;BMP_pressure;BME280_temperature;BME280_humidity;BME280_pressure;Samples;Min_cycle;Max_cycle;Signal;HPM_P1;HPM_P2
2022/09/12 00:00:30;;;;;;;2.95;0.88;;;20.80;60.10;;;;;;4998371;28;20486;-76
2022/09/12 00:02:57;;;;;;;2.63;0.80;;;20.80;60.20;;;;;;5004685;28;20058;-76
2022/09/12 00:05:24;;;;;;;2.97;1.25;;;20.90;60.30;;;;;;4998181;28;20026;-76
2022/09/12 00:07:49;;;;;;;3.05;0.90;;;20.80;60.20;;;;;;4998244;28;20023;-76
2022/09/12 00:10:16;;;;;;;1.83;0.90;;;20.90;60.10;;;;;;4998638;28;20033;-77
2022/09/12 00:12:41;;;;;;;1.95;0.82;;;20.80;60.00;;;;;;4996959;28;20564;-76
2022/09/12 00:15:08;;;;;;;1.25;0.70;;;20.80;59.80;;;;;;4998068;28;20026;-77
2022/09/12 00:17:35;;;;;;;1.10;0.68;;;20.80;60.20;;;;;;4998570;28;20058;-76
2022/09/12 00:20:02;;;;;;;1.27;0.70;;;20.80;59.90;;;;;;4998050;28;20502;-76
2022/09/12 00:22:27;;;;;;;1.20;0.70;;;20.80;60.20;;;;;;4997691;28;20026;-76
2022/09/12 00:24:53;;;;;;;2.78;0.88;;;20.80;60.20;;;;;;4997230;28;20099;-76
2022/09/12 00:27:19;;;;;;;2.35;0.90;;;20.80;60.00;;;;;;4997698;28;20084;-76
2022/09/12 00:29:44;;;;;;;1.25;0.80;;;20.70;60.30;;;;;;4997826;28;20463;-76
2022/09/12 00:32:10;;;;;;;1.20;0.80;;;20.80;60.40;;;;;;4997713;28;20117;-76
2022/09/12 00:34:36;;;;;;;2.22;0.75;;;20.80;60.40;;;;;;5005886;28;20671;-75
2022/09/12 00:37:02;;;;;;;0.85;0.60;;;20.80;60.50;;;;;;5017224;28;20029;-76
2022/09/12 00:39:28;;;;;;;2.45;0.95;;;20.80;60.40;;;;;;5017069;28;20030;-76
2022/09/12 00:41:54;;;;;;;1.38;0.82;;;20.70;60.60;;;;;;5011713;28;20026;-76
2022/09/12 00:44:22;;;;;;;4.30;0.95;;;20.70;60.40;;;;;;4997300;28;20055;-76
2022/09/12 00:47:03;;;;;;;1.88;0.90;;;20.70;60.60;;;;;;4997303;28;20046;-76
2022/09/12 00:49:47;;;;;;;1.25;0.63;;;20.70;60.80;;;;;;4997490;28;20038;-76
2022/09/12 00:52:25;;;;;;;1.67;1.05;;;20.60;60.70;;;;;;5023386;28;20037;-77
2022/09/12 00:55:10;;;;;;;2.45;0.88;;;20.70;60.60;;;;;;4999388;28;20026;-76
2022/09/12 00:57:58;;;;;;;2.63;0.88;;;20.70;60.70;;;;;;5016709;28;20432;-76
2022/09/12 01:00:26;;;;;;;2.80;0.82;;;20.70;60.70;;;;;;5000176;28;20049;-77
2022/09/12 01:03:02;;;;;;;1.77;0.80;;;20.70;60.80;;;;;;4995696;28;20156;-76
2022/09/12 01:05:30;;;;;;;3.17;0.85;;;20.60;61.00;;;;;;4997295;28;20113;-77
2022/09/12 01:07:56;;;;;;;1.55;0.90;;;20.60;61.00;;;;;;4997111;28;20026;-77
2022/09/12 01:10:22;;;;;;;3.42;0.90;;;20.60;60.90;;;;;;4996913;28;20065;-76
2022/09/12 01:12:49;;;;;;;2.00;0.82;;;20.60;61.00;;;;;;4996971;28;20093;-76
2022/09/12 01:15:14;;;;;;;1.90;0.88;;;20.60;60.90;;;;;;4996945;28;20394;-76
2022/09/12 01:18:06;;;;;;;1.63;1.05;;;20.60;61.00;;;;;;4996741;28;20026;-76
2022/09/12 01:20:53;;;;;;;2.05;0.90;;;20.60;61.10;;;;;;4996870;28;20026;-77
2022/09/12 01:23:31;;;;;;;2.80;0.93;;;20.60;61.00;;;;;;4996762;28;20048;-76
2022/09/12 01:26:28;;;;;;;2.72;0.88;;;20.50;60.90;;;;;;5028193;28;20032;-76
2022/09/12 01:29:27;;;;;;;1.65;1.20;;;20.50;61.20;;;;;;4996788;28;20027;-76
2022/09/12 01:32:03;;;;;;;1.83;0.88;;;20.40;60.90;;;;;;5012251;28;20026;-76
2022/09/12 01:34:34;;;;;;;2.03;0.88;;;20.30;61.10;;;;;;5002967;28;20017;-76
2022/09/12 01:37:24;;;;;;;1.48;0.73;;;20.30;61.50;;;;;;5016256;28;20508;-75
2022/09/12 01:40:15;;;;;;;1.35;0.80;;;20.30;61.20;;;;;;5011819;28;20030;-76
2022/09/12 01:42:49;;;;;;;2.33;1.05;;;20.40;61.20;;;;;;4996306;28;20050;-76
2022/09/12 01:45:34;;;;;;;3.75;0.88;;;20.30;61.30;;;;;;5011783;28;20142;-76
2022/09/12 01:48:37;;;;;;;3.35;1.00;;;20.30;61.30;;;;;;5011768;28;20133;-76
2022/09/12 01:51:06;;;;;;;2.85;0.98;;;20.30;61.50;;;;;;4986869;28;20081;-76
2022/09/12 01:53:46;;;;;;;3.10;0.90;;;20.20;61.50;;;;;;4996379;28;20022;-77
2022/09/12 01:56:24;;;;;;;1.45;0.80;;;20.20;61.60;;;;;;4996531;28;20026;-77
2022/09/12 01:59:05;;;;;;;1.17;0.75;;;20.20;61.90;;;;;;4996230;28;20461;-76
2022/09/12 02:01:34;;;;;;;4.45;1.20;;;20.10;61.90;;;;;;4996780;28;20030;-76
2022/09/12 02:04:02;;;;;;;4.32;1.23;;;20.00;62.00;;;;;;4995038;28;20042;-77
2022/09/12 02:06:35;;;;;;;1.60;0.80;;;20.10;62.00;;;;;;4996118;28;20034;-76
2022/09/12 02:09:08;;;;;;;1.60;0.80;;;20.10;62.20;;;;;;4996460;28;20113;-76
2022/09/12 02:11:38;;;;;;;7.20;0.93;;;20.10;62.20;;;;;;4995562;28;20022;-76
2022/09/12 02:14:14;;;;;;;1.30;0.90;;;20.10;62.20;;;;;;4996643;28;20034;-76
2022/09/12 02:16:57;;;;;;;2.08;0.93;;;20.10;62.40;;;;;;4995971;28;20037;-76
2022/09/12 02:19:28;;;;;;;3.08;1.40;;;20.10;62.40;;;;;;4994784;28;20037;-76
2022/09/12 02:22:03;;;;;;;2.70;0.80;;;20.10;62.20;;;;;;4994696;28;20031;-76
2022/09/12 02:24:39;;;;;;;1.63;0.80;;;20.10;62.50;;;;;;4978657;28;20030;-76
2022/09/12 02:27:19;;;;;;;3.55;0.90;;;20.10;62.60;;;;;;4978325;28;20506;-76
2022/09/12 02:29:45;;;;;;;2.40;0.93;;;20.00;62.40;;;;;;4995520;28;20023;-76
2022/09/12 02:32:27;;;;;;;1.75;0.80;;;20.00;62.70;;;;;;4995641;28;20029;-76
2022/09/12 02:35:06;;;;;;;2.05;1.02;;;19.90;63.20;;;;;;5006325;28;20021;-76
2022/09/12 02:37:55;;;;;;;1.95;1.17;;;19.80;63.30;;;;;;4997706;28;20125;-76
2022/09/12 02:40:21;;;;;;;1.25;0.75;;;19.80;63.30;;;;;;5010850;28;20049;-76
2022/09/12 02:42:48;;;;;;;1.25;0.80;;;19.90;63.20;;;;;;4995613;28;20089;-76
2022/09/12 02:45:36;;;;;;;1.67;0.85;;;19.90;63.30;;;;;;4995670;28;20030;-76
2022/09/12 02:48:16;;;;;;;1.75;1.05;;;19.90;63.60;;;;;;4992534;28;20030;-76
2022/09/12 02:50:42;;;;;;;1.80;1.10;;;19.90;63.50;;;;;;4999701;28;20023;-76
2022/09/12 02:53:09;;;;;;;1.38;0.90;;;19.80;63.50;;;;;;4999587;28;20026;-76
2022/09/12 02:55:37;;;;;;;1.70;0.93;;;19.80;63.70;;;;;;5014975;28;20034;-77
2022/09/12 02:58:07;;;;;;;1.45;0.88;;;19.80;63.70;;;;;;4999552;28;20050;-76
2022/09/12 03:01:11;;;;;;;1.38;0.70;;;19.70;64.10;;;;;;4998383;28;20022;-77
2022/09/12 03:04:02;;;;;;;1.20;0.88;;;19.60;64.30;;;;;;4999905;28;20038;-77
2022/09/12 03:07:02;;;;;;;2.70;0.88;;;19.60;64.40;;;;;;4998630;28;20031;-77
2022/09/12 03:10:14;;;;;;;1.83;0.90;;;19.50;64.60;;;;;;4963505;28;20043;-76
2022/09/12 03:13:01;;;;;;;2.50;1.15;;;19.60;64.90;;;;;;4999730;28;20506;-76
2022/09/12 03:16:02;;;;;;;2.28;1.00;;;19.60;64.70;;;;;;4999253;28;20053;-77
2022/09/12 03:18:46;;;;;;;1.88;0.88;;;19.60;64.70;;;;;;4999076;28;20038;-76
2022/09/12 03:21:18;;;;;;;2.67;0.90;;;19.70;64.70;;;;;;5014449;28;20026;-76
2022/09/12 03:24:18;;;;;;;1.48;0.95;;;19.60;64.70;;;;;;4998566;28;20022;-77
2022/09/12 03:27:15;;;;;;;1.67;1.05;;;19.60;64.90;;;;;;5014523;28;20453;-77
2022/09/12 03:29:43;;;;;;;2.05;0.95;;;19.50;65.10;;;;;;4997742;28;20500;-77
2022/09/12 03:32:09;;;;;;;3.58;1.65;;;19.50;65.30;;;;;;4965348;28;20501;-77
2022/09/12 03:34:35;;;;;;;2.20;0.95;;;19.50;65.20;;;;;;5021684;28;20053;-76
2022/09/12 03:37:04;;;;;;;4.97;1.15;;;19.40;65.50;;;;;;5000989;28;20475;-76
2022/09/12 03:39:30;;;;;;;1.65;0.90;;;19.40;65.40;;;;;;5018495;28;20088;-77
2022/09/12 03:41:56;;;;;;;1.27;0.90;;;19.60;65.40;;;;;;5018113;28;20018;-76
2022/09/12 03:44:22;;;;;;;2.92;1.00;;;19.60;65.30;;;;;;5006776;28;20069;-76
2022/09/12 03:46:47;;;;;;;2.95;1.00;;;19.50;65.20;;;;;;4998518;28;20026;-76
2022/09/12 03:49:13;;;;;;;2.65;1.10;;;19.50;65.50;;;;;;4998593;28;20039;-76
2022/09/12 03:51:39;;;;;;;2.08;0.98;;;19.50;65.60;;;;;;4998943;28;20019;-76
2022/09/12 03:54:08;;;;;;;1.92;0.88;;;19.50;65.50;;;;;;4998587;28;20022;-77
2022/09/12 03:56:34;;;;;;;3.95;0.90;;;19.60;65.40;;;;;;4998851;28;20034;-76
2022/09/12 03:59:00;;;;;;;1.80;1.10;;;19.60;65.30;;;;;;4996807;28;20105;-76
2022/09/12 04:01:26;;;;;;;2.10;1.05;;;19.60;65.50;;;;;;4997837;28;20065;-77
2022/09/12 04:03:51;;;;;;;1.40;0.90;;;19.60;65.60;;;;;;4998783;28;20030;-77
2022/09/12 04:06:20;;;;;;;2.40;1.00;;;19.50;65.70;;;;;;4996864;28;20040;-77
2022/09/12 04:08:51;;;;;;;1.35;0.80;;;19.40;65.90;;;;;;4998323;28;20026;-76
2022/09/12 04:11:19;;;;;;;1.30;0.90;;;19.40;65.90;;;;;;4998182;28;20018;-76
2022/09/12 04:13:45;;;;;;;1.63;0.82;;;19.40;66.20;;;;;;4997977;28;20038;-76
2022/09/12 04:16:12;;;;;;;2.42;0.88;;;19.40;66.10;;;;;;4998071;28;20027;-77
2022/09/12 04:18:38;;;;;;;4.30;1.08;;;19.40;66.30;;;;;;4997484;28;20117;-76
2022/09/12 04:21:09;;;;;;;4.25;1.10;;;19.40;66.10;;;;;;4998140;28;20034;-77
2022/09/12 04:23:35;;;;;;;2.33;1.08;;;19.40;66.10;;;;;;4998333;28;20054;-76
2022/09/12 04:26:02;;;;;;;2.85;1.17;;;19.30;66.40;;;;;;4997848;28;20379;-77
2022/09/12 04:28:28;;;;;;;3.28;0.80;;;19.30;66.60;;;;;;5013086;28;20037;-76
2022/09/12 04:30:54;;;;;;;1.73;1.00;;;19.30;66.70;;;;;;4997659;28;20022;-78
2022/09/12 04:33:33;;;;;;;;;;;;;;;;;;;;;
2022/09/12 04:36:07;;;;;;;3.30;1.08;;;19.30;67.00;;;;;;5016659;28;20033;-76
2022/09/12 04:38:34;;;;;;;1.48;0.93;;;19.30;66.90;;;;;;5007026;28;20402;-75
2022/09/12 04:41:00;;;;;;;2.67;1.17;;;19.30;67.00;;;;;;4996344;28;20030;-77
2022/09/12 04:43:26;;;;;;;3.22;1.10;;;19.20;67.10;;;;;;4997352;28;20047;-77
2022/09/12 04:45:51;;;;;;;1.52;1.08;;;19.20;67.20;;;;;;4997277;28;20107;-76
2022/09/12 04:48:17;;;;;;;1.80;1.30;;;19.20;67.20;;;;;;4997375;28;20105;-77
2022/09/12 04:50:50;;;;;;;2.33;1.05;;;19.20;67.30;;;;;;5012397;28;20034;-76
2022/09/12 04:53:15;;;;;;;2.40;1.05;;;19.10;67.50;;;;;;4997235;28;20022;-76
2022/09/12 04:55:41;;;;;;;1.80;1.05;;;19.20;67.50;;;;;;4996928;28;20029;-78
2022/09/12 04:58:07;;;;;;;2.45;1.30;;;19.20;67.60;;;;;;4997769;28;20049;-75
2022/09/12 05:00:33;;;;;;;2.08;1.30;;;19.10;67.60;;;;;;5013460;28;20026;-76
2022/09/12 05:02:59;;;;;;;2.33;1.42;;;19.20;67.60;;;;;;5018092;28;20025;-75
2022/09/12 05:05:24;;;;;;;2.05;1.30;;;19.20;67.50;;;;;;5016938;28;20062;-73
2022/09/12 05:07:50;;;;;;;2.25;1.08;;;19.10;67.70;;;;;;5020739;28;20032;-73
2022/09/12 05:10:17;;;;;;;1.40;0.80;;;19.00;67.80;;;;;;5000856;28;20030;-73
2022/09/12 05:12:42;;;;;;;2.28;1.10;;;19.10;67.80;;;;;;5014983;28;20022;-76
2022/09/12 05:15:08;;;;;;;2.33;1.20;;;19.10;67.90;;;;;;5016800;28;20022;-77
2022/09/12 05:17:34;;;;;;;3.95;1.50;;;19.10;67.70;;;;;;4996977;28;20121;-75
2022/09/12 05:20:00;;;;;;;2.00;1.30;;;19.20;67.40;;;;;;5006024;28;20053;-78
2022/09/12 05:22:26;;;;;;;2.10;1.10;;;19.20;67.20;;;;;;5015626;28;20049;-76
2022/09/12 05:24:54;;;;;;;2.22;1.15;;;19.20;67.30;;;;;;5015892;28;20025;-73
2022/09/12 05:27:19;;;;;;;2.05;1.30;;;19.20;67.20;;;;;;5014506;28;20029;-75
2022/09/12 05:29:45;;;;;;;2.20;1.40;;;19.20;67.40;;;;;;5015098;28;20163;-74
2022/09/12 05:32:11;;;;;;;3.80;1.48;;;19.20;67.40;;;;;;5018728;28;20079;-74
2022/09/12 05:34:37;;;;;;;1.85;1.10;;;19.20;67.40;;;;;;5012700;28;20037;-74
2022/09/12 05:37:03;;;;;;;1.50;1.10;;;19.20;67.50;;;;;;5013799;28;20109;-74
2022/09/12 05:39:29;;;;;;;2.97;1.60;;;19.20;67.40;;;;;;5012952;28;20120;-74
2022/09/12 05:41:55;;;;;;;1.70;1.10;;;19.20;67.60;;;;;;5004084;28;20026;-75
2022/09/12 05:44:20;;;;;;;3.13;1.15;;;19.10;67.80;;;;;;5014816;28;20048;-74
2022/09/12 05:46:50;;;;;;;3.63;1.40;;;19.00;67.90;;;;;;5028181;28;20569;-74
2022/09/12 05:49:15;;;;;;;1.83;1.17;;;19.00;68.10;;;;;;5005499;28;20821;-75
2022/09/12 05:51:44;;;;;;;3.30;1.10;;;19.00;68.00;;;;;;5011746;28;20096;-76
2022/09/12 05:54:12;;;;;;;1.67;1.20;;;19.10;68.00;;;;;;5031004;28;20045;-75
2022/09/12 05:56:40;;;;;;;2.03;1.45;;;19.10;67.80;;;;;;5015128;28;20083;-77
2022/09/12 05:59:12;;;;;;;2.75;1.20;;;19.10;67.80;;;;;;4990247;28;20022;-76
2022/09/12 06:01:38;;;;;;;1.90;1.40;;;19.10;67.80;;;;;;4997713;28;20026;-76
2022/09/12 06:04:05;;;;;;;2.38;1.25;;;19.10;67.90;;;;;;5015627;28;20032;-76
2022/09/12 06:06:35;;;;;;;3.47;1.27;;;19.10;68.00;;;;;;5014277;28;20505;-75
2022/09/12 06:09:02;;;;;;;2.47;1.10;;;19.10;67.90;;;;;;4997837;28;20014;-75
2022/09/12 06:11:30;;;;;;;2.15;1.00;;;19.10;68.00;;;;;;5010385;28;20548;-75
2022/09/12 06:13:57;;;;;;;3.00;1.30;;;19.00;68.30;;;;;;5014924;28;20026;-76
2022/09/12 06:16:28;;;;;;;7.07;1.23;;;19.10;68.30;;;;;;5015792;28;20559;-76
2022/09/12 06:18:59;;;;;;;5.68;1.67;;;19.10;68.30;;;;;;5015924;28;20049;-76
2022/09/12 06:21:26;;;;;;;2.00;1.20;;;19.10;68.30;;;;;;5011701;28;20030;-76
2022/09/12 06:23:57;;;;;;;2.13;1.17;;;19.10;68.30;;;;;;4996128;28;20062;-76
2022/09/12 06:26:24;;;;;;;1.67;1.30;;;19.20;68.30;;;;;;4996156;28;20018;-76
2022/09/12 06:28:51;;;;;;;3.40;1.52;;;19.20;68.10;;;;;;4996156;28;20025;-75
2022/09/12 06:31:21;;;;;;;1.80;1.15;;;19.10;68.20;;;;;;4996054;28;20049;-76
2022/09/12 06:33:49;;;;;;;3.63;1.48;;;19.20;68.10;;;;;;5010840;28;20030;-76
2022/09/12 06:36:19;;;;;;;1.95;1.00;;;19.20;68.10;;;;;;5009929;28;20077;-76
2022/09/12 06:38:46;;;;;;;1.92;1.10;;;19.10;68.60;;;;;;4995759;28;20049;-76
2022/09/12 06:41:12;;;;;;;3.25;1.00;;;19.20;68.60;;;;;;4993599;28;20088;-75
2022/09/12 06:43:40;;;;;;;2.90;1.00;;;19.20;68.50;;;;;;4995233;28;20077;-75
2022/09/12 06:46:06;;;;;;;1.50;0.93;;;19.20;68.60;;;;;;5010475;28;20386;-76
2022/09/12 06:48:32;;;;;;;3.03;1.30;;;19.30;68.60;;;;;;4995478;28;20022;-76
2022/09/12 06:51:03;;;;;;;2.00;1.27;;;19.20;68.40;;;;;;4996447;28;20105;-76
2022/09/12 06:53:32;;;;;;;5.10;1.40;;;19.20;68.80;;;;;;4995959;28;20037;-76
2022/09/12 06:56:08;;;;;;;2.20;1.30;;;19.20;68.80;;;;;;4994365;28;20069;-77
2022/09/12 06:58:35;;;;;;;2.50;1.13;;;19.30;68.90;;;;;;4995920;28;20027;-76
2022/09/12 07:01:04;;;;;;;2.00;0.90;;;19.30;68.90;;;;;;4996282;28;20489;-76
2022/09/12 07:03:31;;;;;;;1.90;1.23;;;19.30;69.10;;;;;;4995771;28;20033;-76
2022/09/12 07:06:00;;;;;;;2.20;1.65;;;19.40;68.90;;;;;;4994748;28;20073;-76
2022/09/12 07:08:27;;;;;;;1.98;1.05;;;19.40;68.60;;;;;;4996249;28;20041;-77
2022/09/12 07:10:53;;;;;;;2.38;1.08;;;19.70;68.30;;;;;;5002244;28;20022;-76
2022/09/12 07:13:19;;;;;;;2.80;1.83;;;19.80;68.10;;;;;;5011176;28;20169;-77
2022/09/12 07:15:44;;;;;;;4.05;1.13;;;19.90;67.30;;;;;;4995802;28;20054;-76
2022/09/12 07:18:10;;;;;;;3.25;1.50;;;19.90;67.50;;;;;;4995980;28;20117;-76
2022/09/12 07:20:37;;;;;;;3.17;1.17;;;19.80;67.50;;;;;;4995602;28;20061;-76
2022/09/12 07:23:02;;;;;;;3.50;1.52;;;19.90;67.90;;;;;;5010634;28;20049;-76
2022/09/12 07:25:28;;;;;;;4.70;1.38;;;19.90;67.70;;;;;;5015243;28;20504;-76
2022/09/12 07:27:54;;;;;;;3.88;1.30;;;19.80;67.90;;;;;;5005326;28;20441;-76
2022/09/12 07:30:21;;;;;;;3.22;1.48;;;20.30;67.60;;;;;;4995521;28;20560;-76
2022/09/12 07:32:50;;;;;;;1.90;1.38;;;21.90;63.80;;;;;;4996885;28;20023;-77
2022/09/12 07:35:16;;;;;;;4.05;1.00;;;23.90;56.90;;;;;;5012404;28;20515;-77
2022/09/12 07:37:41;;;;;;;2.03;1.17;;;25.30;52.70;;;;;;5017398;28;20112;-77
2022/09/12 07:40:09;;;;;;;2.50;1.30;;;25.70;51.90;;;;;;5018249;28;20021;-76
2022/09/12 07:42:34;;;;;;;4.03;1.23;;;25.70;50.50;;;;;;5018308;28;20026;-77
2022/09/12 07:45:00;;;;;;;4.57;1.52;;;24.80;52.80;;;;;;5018514;28;20544;-77
2022/09/12 07:47:25;;;;;;;4.72;1.60;;;23.70;54.90;;;;;;5018427;28;20048;-76
2022/09/12 07:49:51;;;;;;;3.80;1.60;;;22.70;57.60;;;;;;5006544;28;20105;-77
2022/09/12 07:52:17;;;;;;;2.58;1.17;;;22.30;59.70;;;;;;4997794;28;20116;-77
2022/09/12 07:54:43;;;;;;;2.35;1.10;;;22.00;60.90;;;;;;4998813;28;20140;-76
2022/09/12 07:57:09;;;;;;;4.53;1.30;;;21.80;61.70;;;;;;4998867;28;20105;-76
2022/09/12 07:59:34;;;;;;;3.30;1.10;;;21.70;61.80;;;;;;4998526;28;20065;-77
2022/09/12 08:02:00;;;;;;;2.92;1.25;;;21.60;62.30;;;;;;4998547;28;20445;-76
2022/09/12 08:04:26;;;;;;;2.13;1.20;;;21.50;62.80;;;;;;4998904;28;20352;-77
2022/09/12 08:06:52;;;;;;;2.78;1.30;;;21.40;62.70;;;;;;4998499;28;20125;-76
2022/09/12 08:09:17;;;;;;;2.65;1.38;;;21.40;63.30;;;;;;4998474;28;20109;-76
2022/09/12 08:11:43;;;;;;;2.25;1.17;;;21.60;62.60;;;;;;4999600;28;20053;-77
2022/09/12 08:14:09;;;;;;;1.95;1.40;;;22.00;62.30;;;;;;4998464;28;20069;-76
2022/09/12 08:16:34;;;;;;;1.70;1.00;;;22.00;60.60;;;;;;4998369;28;20027;-76
2022/09/12 08:19:01;;;;;;;1.80;0.90;;;21.90;61.10;;;;;;4998394;28;20042;-77
2022/09/12 08:21:29;;;;;;;3.50;1.10;;;21.80;62.00;;;;;;4998705;28;20033;-77
2022/09/12 08:24:01;;;;;;;4.32;1.02;;;21.80;62.00;;;;;;4998226;28;20034;-76
2022/09/12 08:26:27;;;;;;;2.92;1.00;;;21.80;62.40;;;;;;4998105;28;20037;-76
2022/09/12 08:28:53;;;;;;;2.25;0.93;;;21.80;62.80;;;;;;4998083;28;20181;-77
2022/09/12 08:31:20;;;;;;;2.58;1.38;;;21.80;63.90;;;;;;4997981;28;20053;-76
2022/09/12 08:33:47;;;;;;;1.50;1.10;;;21.90;62.20;;;;;;5013621;28;20100;-76
2022/09/12 08:36:20;;;;;;;2.88;1.30;;;21.90;61.50;;;;;;4996636;28;20394;-77
2022/09/12 08:38:48;;;;;;;2.28;1.00;;;21.90;61.90;;;;;;5013303;28;20058;-76
2022/09/12 08:41:23;;;;;;;2.83;0.95;;;22.10;62.60;;;;;;4997805;28;20018;-77
2022/09/12 08:44:19;;;;;;;2.03;1.00;;;22.20;62.00;;;;;;4997939;28;20046;-77
2022/09/12 08:46:48;;;;;;;2.92;1.17;;;22.30;62.10;;;;;;4997422;28;20101;-77
2022/09/12 08:49:32;;;;;;;3.38;1.48;;;22.30;60.00;;;;;;4997834;28;20023;-76
2022/09/12 08:52:01;;;;;;;1.40;0.85;;;22.50;61.10;;;;;;4998084;28;20410;-77
2022/09/12 08:54:29;;;;;;;2.75;0.88;;;22.60;60.20;;;;;;4997757;28;20029;-77
2022/09/12 08:57:00;;;;;;;1.70;1.08;;;22.80;60.00;;;;;;4997671;28;20391;-77
2022/09/12 08:59:30;;;;;;;1.88;1.00;;;23.10;60.00;;;;;;4998026;28;20056;-76
2022/09/12 09:02:00;;;;;;;2.88;1.05;;;23.60;59.50;;;;;;4997231;28;20113;-77
2022/09/12 09:05:01;;;;;;;1.67;1.08;;;24.00;57.90;;;;;;4997386;28;20473;-77
2022/09/12 09:07:32;;;;;;;4.57;3.90;;;24.80;56.40;;;;;;4997144;28;20077;-77
2022/09/12 09:10:25;;;;;;;3.80;2.10;;;25.80;53.20;;;;;;4997395;28;20041;-77
2022/09/12 09:12:59;;;;;;;2.97;1.20;;;26.80;49.60;;;;;;4997368;28;20024;-77
2022/09/12 09:15:58;;;;;;;2.50;1.98;;;27.00;48.50;;;;;;4997228;28;20482;-77
2022/09/12 09:18:28;;;;;;;3.13;0.93;;;27.30;47.90;;;;;;4997232;28;20050;-77
2022/09/12 09:21:20;;;;;;;3.50;1.00;;;27.50;47.30;;;;;;4997077;28;20321;-77
2022/09/12 09:23:52;;;;;;;1.58;0.88;;;27.30;47.40;;;;;;4997537;28;20042;-77
2022/09/12 09:26:28;;;;;;;2.53;0.90;;;27.00;49.60;;;;;;4997449;28;20486;-76
2022/09/12 09:29:02;;;;;;;2.58;0.82;;;26.50;48.90;;;;;;5004484;28;20017;-77
2022/09/12 09:31:34;;;;;;;4.20;0.95;;;26.10;50.20;;;;;;5016522;28;20064;-77
2022/09/12 09:34:00;;;;;;;2.40;1.00;;;25.80;51.50;;;;;;5012122;28;20049;-77
2022/09/12 09:36:48;;;;;;;3.35;0.80;;;25.80;50.60;;;;;;5015085;28;20489;-77
2022/09/12 09:39:15;;;;;;;3.22;0.77;;;25.80;50.90;;;;;;5016612;28;20057;-77
2022/09/12 09:42:14;;;;;;;2.55;2.35;;;25.80;51.50;;;;;;5016361;28;20026;-76
2022/09/12 09:44:40;;;;;;;1.10;0.60;;;25.70;51.10;;;;;;4996876;28;20062;-76
2022/09/12 09:47:09;;;;;;;1.85;0.70;;;25.70;52.10;;;;;;4979011;28;20089;-77
2022/09/12 09:49:35;;;;;;;2.55;0.80;;;25.60;52.50;;;;;;4996818;28;20470;-77
2022/09/12 09:52:01;;;;;;;1.70;0.90;;;25.50;51.30;;;;;;4997005;28;20026;-77
2022/09/12 09:54:54;;;;;;;3.88;2.28;;;25.50;51.80;;;;;;4996653;28;20022;-76
2022/09/12 09:57:34;;;;;;;2.67;1.15;;;25.60;50.60;;;;;;4996503;28;20033;-76
2022/09/12 10:00:24;;;;;;;1.67;1.15;;;25.70;51.60;;;;;;5011541;28;20080;-76
2022/09/12 10:03:33;;;;;;;2.58;1.10;;;26.00;49.40;;;;;;5011457;28;20486;-77
2022/09/12 10:06:20;;;;;;;1.53;0.73;;;26.50;49.90;;;;;;5011519;28;20050;-77
2022/09/12 10:08:48;;;;;;;1.50;0.60;;;27.20;47.80;;;;;;4996328;28;20038;-77
2022/09/12 10:11:22;;;;;;;2.88;0.77;;;27.90;45.30;;;;;;5005556;28;20030;-77
2022/09/12 10:13:53;;;;;;;5.63;0.90;;;28.30;45.50;;;;;;5015956;28;20014;-77
2022/09/12 10:16:23;;;;;;;1.95;0.80;;;28.30;44.60;;;;;;5009964;28;20492;-77
2022/09/12 10:18:51;;;;;;;2.17;0.80;;;28.00;45.80;;;;;;4996646;28;20100;-77
2022/09/12 10:21:28;;;;;;;2.03;0.70;;;27.60;46.00;;;;;;4996288;28;20026;-77
2022/09/12 10:24:02;;;;;;;1.52;0.77;;;27.00;44.40;;;;;;4996291;28;20465;-77
2022/09/12 10:26:37;;;;;;;2.75;0.60;;;26.80;46.60;;;;;;4996451;28;20026;-77
2022/09/12 10:29:14;;;;;;;1.92;0.80;;;26.60;47.10;;;;;;4994645;28;20053;-77
2022/09/12 10:32:07;;;;;;;1.67;0.73;;;26.50;46.80;;;;;;5011087;28;20023;-77
2022/09/12 10:34:41;;;;;;;1.98;0.77;;;26.40;46.50;;;;;;5003618;28;20025;-76
2022/09/12 10:37:08;;;;;;;3.92;0.88;;;26.40;46.60;;;;;;4981911;28;20034;-76
2022/09/12 10:39:37;;;;;;;1.95;0.75;;;26.30;48.30;;;;;;4996083;28;20043;-76
2022/09/12 10:42:04;;;;;;;2.00;0.70;;;26.40;49.30;;;;;;4995939;28;20033;-77
2022/09/12 10:44:32;;;;;;;1.65;0.80;;;26.40;48.80;;;;;;4996209;28;20065;-77
2022/09/12 10:47:18;;;;;;;1.20;0.60;;;26.60;49.20;;;;;;5018846;28;20060;-76
2022/09/12 10:49:43;;;;;;;0.90;0.60;;;26.60;48.90;;;;;;5005778;28;20456;-76
2022/09/12 10:52:24;;;;;;;3.05;1.02;;;26.70;47.70;;;;;;5022532;28;20658;-77
2022/09/12 10:54:50;;;;;;;2.70;0.80;;;26.80;49.10;;;;;;4995977;28;20078;-76
2022/09/12 10:57:30;;;;;;;2.42;0.82;;;26.80;49.00;;;;;;4995869;28;20065;-77
2022/09/12 11:00:02;;;;;;;1.60;0.70;;;26.80;48.00;;;;;;4996418;28;20058;-77
2022/09/12 11:02:57;;;;;;;2.20;0.80;;;26.80;47.80;;;;;;4995627;28;20049;-76
2022/09/12 11:05:52;;;;;;;1.73;0.80;;;26.80;47.20;;;;;;4978429;28;20062;-77
2022/09/12 11:08:21;;;;;;;1.67;0.70;;;26.80;47.90;;;;;;4988526;28;20518;-76
2022/09/12 11:11:04;;;;;;;2.35;0.80;;;26.80;47.80;;;;;;5020316;28;20323;-77
2022/09/12 11:14:14;;;;;;;2.20;0.95;;;26.80;47.80;;;;;;5019056;28;20030;-77
2022/09/12 11:16:53;;;;;;;2.63;0.93;;;26.80;48.10;;;;;;5006089;28;20142;-77
2022/09/12 11:19:39;;;;;;;2.30;0.60;;;26.80;48.10;;;;;;4999517;28;20027;-77
2022/09/12 11:22:32;;;;;;;1.80;0.80;;;26.80;47.00;;;;;;4999734;28;20026;-77
2022/09/12 11:25:17;;;;;;;2.95;0.73;;;27.00;48.30;;;;;;4999433;28;20081;-77
2022/09/12 11:27:56;;;;;;;2.35;0.70;;;27.00;48.60;;;;;;5014525;28;20038;-76
2022/09/12 11:30:22;;;;;;;1.27;0.80;;;27.10;47.00;;;;;;4999739;28;20026;-76
2022/09/12 11:33:23;;;;;;;3.20;0.70;;;27.10;47.50;;;;;;4998990;28;20031;-76
2022/09/12 11:35:50;;;;;;;2.50;0.70;;;27.20;47.40;;;;;;5016636;28;20038;-77
2022/09/12 11:38:34;;;;;;;1.67;0.82;;;27.30;47.50;;;;;;5010672;28;20172;-76
2022/09/12 11:41:04;;;;;;;2.05;0.77;;;27.30;47.60;;;;;;5014406;28;20026;-76
2022/09/12 11:43:50;;;;;;;2.35;0.88;;;27.30;46.30;;;;;;4997589;28;20062;-77
2022/09/12 11:46:28;;;;;;;1.30;0.73;;;27.30;46.10;;;;;;4999172;28;20042;-76
2022/09/12 11:49:01;;;;;;;1.95;0.70;;;27.40;46.30;;;;;;4998824;28;20045;-76
2022/09/12 11:51:46;;;;;;;2.03;0.80;;;27.50;46.10;;;;;;4998926;28;20022;-77
2022/09/12 11:54:33;;;;;;;2.65;0.90;;;27.50;47.00;;;;;;5013956;28;20026;-77
2022/09/12 11:57:20;;;;;;;2.08;0.85;;;27.60;46.60;;;;;;5013703;28;20113;-77
2022/09/12 11:59:57;;;;;;;1.33;0.77;;;27.70;45.90;;;;;;4998809;28;20046;-76
2022/09/12 12:02:29;;;;;;;1.27;0.70;;;27.80;45.40;;;;;;4998466;28;20033;-76
2022/09/12 12:05:17;;;;;;;2.47;0.60;;;27.80;45.30;;;;;;4998536;28;20026;-77
2022/09/12 12:07:54;;;;;;;2.22;0.73;;;27.90;44.90;;;;;;5013654;28;20038;-77
2022/09/12 12:10:30;;;;;;;2.20;0.85;;;27.90;43.70;;;;;;5000505;28;20038;-76
2022/09/12 12:12:59;;;;;;;1.65;0.70;;;27.90;43.60;;;;;;5000744;28;20050;-77
2022/09/12 12:15:26;;;;;;;5.75;0.85;;;28.00;44.60;;;;;;4998485;28;20027;-77
2022/09/12 12:18:21;;;;;;;1.35;0.60;;;28.10;43.90;;;;;;4998180;28;20026;-77
2022/09/12 12:20:47;;;;;;;1.17;0.60;;;28.10;45.00;;;;;;4997726;28;20053;-77
2022/09/12 12:23:30;;;;;;;2.33;0.77;;;28.20;43.90;;;;;;5006880;28;20037;-77
2022/09/12 12:25:58;;;;;;;2.88;0.57;;;28.20;42.80;;;;;;5017326;28;20072;-77
2022/09/12 12:28:49;;;;;;;4.40;1.03;;;28.30;42.50;;;;;;5013349;28;20054;-77
2022/09/12 12:31:16;;;;;;;1.67;0.55;;;28.30;44.50;;;;;;5012951;28;20324;-77
2022/09/12 12:33:42;;;;;;;3.05;0.68;;;28.40;42.70;;;;;;4981676;28;20049;-77
2022/09/12 12:36:10;;;;;;;1.35;0.60;;;28.40;43.80;;;;;;5000086;28;20026;-77
2022/09/12 12:38:37;;;;;;;3.58;0.80;;;28.50;44.20;;;;;;5016569;28;20030;-77
2022/09/12 12:41:18;;;;;;;2.33;0.50;;;28.60;44.40;;;;;;5007002;28;20031;-77
2022/09/12 12:43:45;;;;;;;1.70;0.50;;;28.60;42.90;;;;;;4997860;28;20485;-77
2022/09/12 12:46:15;;;;;;;1.92;0.50;;;28.70;42.20;;;;;;4998227;28;20030;-77
2022/09/12 12:48:51;;;;;;;1.33;0.60;;;28.70;42.40;;;;;;4997858;28;20027;-77
2022/09/12 12:51:36;;;;;;;1.17;0.50;;;28.80;43.80;;;;;;4998198;28;20023;-77
2022/09/12 12:54:24;;;;;;;4.35;0.70;;;28.80;44.10;;;;;;4997958;28;20422;-77
2022/09/12 12:57:03;;;;;;;0.90;0.40;;;28.80;42.40;;;;;;4990291;28;20122;-77
2022/09/12 12:59:30;;;;;;;1.73;0.60;;;28.80;43.80;;;;;;4997525;28;20023;-78
2022/09/12 13:01:58;;;;;;;2.03;0.60;;;28.60;43.70;;;;;;4997829;28;20613;-77
2022/09/12 13:04:27;;;;;;;3.22;1.33;;;28.50;43.70;;;;;;4996323;28;20084;-77
2022/09/12 13:07:05;;;;;;;3.17;0.83;;;28.40;44.30;;;;;;4997392;28;20034;-77
2022/09/12 13:09:44;;;;;;;1.83;0.40;;;28.50;44.00;;;;;;4995491;28;20093;-78
2022/09/12 13:12:24;;;;;;;2.15;0.50;;;28.50;42.90;;;;;;5014271;28;20485;-77
2022/09/12 13:14:51;;;;;;;3.67;0.52;;;28.60;43.90;;;;;;5016847;28;20112;-78
2022/09/12 13:17:25;;;;;;;0.70;0.40;;;28.70;44.30;;;;;;5016845;28;20036;-77